Terminal Aerodrome Forecast
Issued by NWS North Platte, NE

Home | Current Version | Previous Version | Text Only | Print | Product List | Glossary On
Versions: 1 2 3 4 5 6 7 8 9 10 11 12 13 14
000
FTUS43 KLBF 201100
TAFLBF
TAF
KLBF 201124Z 2012/2112 VRB06KT P6SM SCT150
     FM201800 15007KT P6SM BKN150
     FM210800 36013KT P6SM SCT150 SCT250=

USA.gov is the U.S. government's official web portal to all federal, state and local government web resources and services.